sensor_id;sensor_type;location;lat;lon;timestamp;pressure;altitude;pressure_sealevel;temperature;humidity
62248;BME280;48237;50.140;8.486;2023-01-29T15:25:22;100501.59;;;2.33;58.28
62248;BME280;48237;50.140;8.486;2023-01-29T15:27:49;100499.82;;;2.32;59.66
62248;BME280;48237;50.140;8.486;2023-01-29T15:30:19;100493.07;;;1.80;61.01
62248;BME280;48237;50.140;8.486;2023-01-29T15:32:48;100485.89;;;2.59;59.23
62248;BME280;48237;50.140;8.486;2023-01-29T15:35:26;100488.08;;;2.02;61.31
62248;BME280;48237;50.140;8.486;2023-01-29T15:38:03;100488.47;;;2.66;58.00
62248;BME280;48237;50.140;8.486;2023-01-29T15:40:31;100491.43;;;1.52;60.01
62248;BME280;48237;50.140;8.486;2023-01-29T15:42:59;100484.16;;;1.63;61.01
62248;BME280;48237;50.140;8.486;2023-01-29T15:45:28;100475.28;;;2.68;58.95
62248;BME280;48237;50.140;8.486;2023-01-29T15:47:59;100473.77;;;2.18;61.15
62248;BME280;48237;50.140;8.486;2023-01-29T15:50:30;100470.17;;;2.54;59.20
62248;BME280;48237;50.140;8.486;2023-01-29T15:53:02;100467.17;;;2.47;62.12
62248;BME280;48237;50.140;8.486;2023-01-29T15:55:33;100460.44;;;2.22;61.15
62248;BME280;48237;50.140;8.486;2023-01-29T15:58:01;100463.23;;;1.52;63.90
62248;BME280;48237;50.140;8.486;2023-01-29T16:00:29;100459.41;;;1.58;62.52
62248;BME280;48237;50.140;8.486;2023-01-29T16:02:58;100456.14;;;1.66;62.31
62248;BME280;48237;50.140;8.486;2023-01-29T16:05:28;100454.73;;;1.74;62.58
62248;BME280;48237;50.140;8.486;2023-01-29T16:07:56;100464.70;;;1.11;64.98
62248;BME280;48237;50.140;8.486;2023-01-29T16:10:26;100472.87;;;-0.53;67.03
62248;BME280;48237;50.140;8.486;2023-01-29T16:12:54;100480.70;;;0.39;67.59
62248;BME280;48237;50.140;8.486;2023-01-29T16:15:29;100482.31;;;0.84;66.10
62248;BME280;48237;50.140;8.486;2023-01-29T16:17:57;100486.37;;;0.89;66.11
62248;BME280;48237;50.140;8.486;2023-01-29T16:20:35;100489.18;;;1.37;65.15
62248;BME280;48237;50.140;8.486;2023-01-29T16:23:04;100493.33;;;1.29;65.30
62248;BME280;48237;50.140;8.486;2023-01-29T16:25:33;100499.39;;;0.91;65.86
62248;BME280;48237;50.140;8.486;2023-01-29T16:28:03;100499.70;;;1.41;65.37
62248;BME280;48237;50.140;8.486;2023-01-29T16:30:32;100507.81;;;0.25;68.06
62248;BME280;48237;50.140;8.486;2023-01-29T16:33:01;100506.58;;;0.85;68.87
62248;BME280;48237;50.140;8.486;2023-01-29T16:35:29;100507.02;;;1.37;66.42
62248;BME280;48237;50.140;8.486;2023-01-29T16:37:59;100511.98;;;0.70;67.05
62248;BME280;48237;50.140;8.486;2023-01-29T16:40:30;100515.87;;;0.84;67.84
62248;BME280;48237;50.140;8.486;2023-01-29T16:45:29;100512.40;;;1.20;68.38
62248;BME280;48237;50.140;8.486;2023-01-29T16:47:59;100516.59;;;0.90;66.44
62248;BME280;48237;50.140;8.486;2023-01-29T16:50:30;100520.21;;;0.95;66.43
62248;BME280;48237;50.140;8.486;2023-01-29T16:53:01;100522.76;;;0.98;66.25
62248;BME280;48237;50.140;8.486;2023-01-29T16:55:35;100522.11;;;1.06;65.34
62248;BME280;48237;50.140;8.486;2023-01-29T16:58:08;100521.07;;;1.68;62.90
62248;BME280;48237;50.140;8.486;2023-01-29T17:00:42;100520.75;;;1.81;64.11
62248;BME280;48237;50.140;8.486;2023-01-29T17:03:11;100523.41;;;0.86;66.76
62248;BME280;48237;50.140;8.486;2023-01-29T17:05:40;100516.21;;;1.69;62.79
62248;BME280;48237;50.140;8.486;2023-01-29T17:08:13;100517.17;;;1.14;65.55
62248;BME280;48237;50.140;8.486;2023-01-29T17:10:46;100521.26;;;1.54;61.98
62248;BME280;48237;50.140;8.486;2023-01-29T17:13:19;100521.72;;;1.91;61.77
62248;BME280;48237;50.140;8.486;2023-01-29T17:15:49;100521.05;;;1.63;62.90
62248;BME280;48237;50.140;8.486;2023-01-29T17:18:18;100516.12;;;0.75;64.99
62248;BME280;48237;50.140;8.486;2023-01-29T17:20:46;100519.59;;;1.33;64.19
62248;BME280;48237;50.140;8.486;2023-01-29T17:23:13;100520.16;;;2.16;61.99
62248;BME280;48237;50.140;8.486;2023-01-29T17:25:40;100518.12;;;1.64;62.18
62248;BME280;48237;50.140;8.486;2023-01-29T17:28:10;100524.01;;;1.26;64.75
62248;BME280;48237;50.140;8.486;2023-01-29T17:30:39;100524.44;;;1.57;63.78
62248;BME280;48237;50.140;8.486;2023-01-29T17:33:10;100525.77;;;0.79;65.40
62248;BME280;48237;50.140;8.486;2023-01-29T17:35:38;100520.74;;;1.45;64.51
62248;BME280;48237;50.140;8.486;2023-01-29T17:38:07;100521.13;;;1.32;64.01
62248;BME280;48237;50.140;8.486;2023-01-29T17:40:37;100517.57;;;1.28;63.43
62248;BME280;48237;50.140;8.486;2023-01-29T17:43:07;100514.01;;;1.14;64.18
62248;BME280;48237;50.140;8.486;2023-01-29T17:45:34;100522.85;;;1.24;63.84
62248;BME280;48237;50.140;8.486;2023-01-29T17:48:01;100529.30;;;1.79;63.29
62248;BME280;48237;50.140;8.486;2023-01-29T17:50:30;100527.85;;;1.96;62.20
62248;BME280;48237;50.140;8.486;2023-01-29T17:52:58;100523.07;;;1.77;62.55
62248;BME280;48237;50.140;8.486;2023-01-29T17:55:25;100517.73;;;1.62;62.48
62248;BME280;48237;50.140;8.486;2023-01-29T17:57:52;100514.31;;;0.90;63.87
62248;BME280;48237;50.140;8.486;2023-01-29T18:00:22;100509.75;;;1.21;64.84
62248;BME280;48237;50.140;8.486;2023-01-29T18:02:49;100505.09;;;1.72;63.31
62248;BME280;48237;50.140;8.486;2023-01-29T18:05:18;100503.77;;;1.21;64.23
62248;BME280;48237;50.140;8.486;2023-01-29T18:07:46;100501.11;;;1.46;64.68
62248;BME280;48237;50.140;8.486;2023-01-29T18:10:16;100499.24;;;1.36;63.71
62248;BME280;48237;50.140;8.486;2023-01-29T18:12:44;100494.65;;;0.50;66.32
62248;BME280;48237;50.140;8.486;2023-01-29T18:15:11;100490.49;;;1.15;64.77
62248;BME280;48237;50.140;8.486;2023-01-29T18:17:39;100487.89;;;1.46;64.46
62248;BME280;48237;50.140;8.486;2023-01-29T18:20:18;100489.65;;;1.41;64.92
62248;BME280;48237;50.140;8.486;2023-01-29T18:22:46;100488.34;;;0.81;64.63
62248;BME280;48237;50.140;8.486;2023-01-29T18:25:13;100487.47;;;1.33;63.07
62248;BME280;48237;50.140;8.486;2023-01-29T18:27:40;100486.33;;;1.12;63.17
62248;BME280;48237;50.140;8.486;2023-01-29T18:30:09;100484.28;;;0.89;63.68
62248;BME280;48237;50.140;8.486;2023-01-29T18:32:37;100476.61;;;0.84;65.63
62248;BME280;48237;50.140;8.486;2023-01-29T18:35:06;100465.82;;;0.25;67.59
62248;BME280;48237;50.140;8.486;2023-01-29T18:37:33;100466.45;;;0.61;67.55
62248;BME280;48237;50.140;8.486;2023-01-29T18:40:00;100468.06;;;1.11;64.79
62248;BME280;48237;50.140;8.486;2023-01-29T18:42:30;100468.69;;;1.07;64.03
62248;BME280;48237;50.140;8.486;2023-01-29T18:44:57;100468.44;;;0.12;66.51
62248;BME280;48237;50.140;8.486;2023-01-29T18:47:24;100473.26;;;0.81;65.52
62248;BME280;48237;50.140;8.486;2023-01-29T18:49:51;100466.77;;;0.59;66.00
62248;BME280;48237;50.140;8.486;2023-01-29T18:52:18;100463.88;;;0.28;67.18
62248;BME280;48237;50.140;8.486;2023-01-29T18:54:45;100460.88;;;0.04;67.97
62248;BME280;48237;50.140;8.486;2023-01-29T18:57:12;100462.69;;;0.89;64.99
62248;BME280;48237;50.140;8.486;2023-01-29T18:59:39;100454.62;;;0.78;66.08
62248;BME280;48237;50.140;8.486;2023-01-29T19:02:11;100459.48;;;0.43;67.63
62248;BME280;48237;50.140;8.486;2023-01-29T19:04:39;100455.67;;;0.60;65.23
62248;BME280;48237;50.140;8.486;2023-01-29T19:07:07;100455.33;;;0.59;66.13
62248;BME280;48237;50.140;8.486;2023-01-29T19:09:34;100451.00;;;0.11;67.85
62248;BME280;48237;50.140;8.486;2023-01-29T19:12:02;100451.62;;;0.58;66.97
62248;BME280;48237;50.140;8.486;2023-01-29T19:14:30;100450.35;;;0.72;65.93
62248;BME280;48237;50.140;8.486;2023-01-29T19:16:56;100450.36;;;0.39;66.22
62248;BME280;48237;50.140;8.486;2023-01-29T19:19:24;100450.15;;;0.62;66.90
62248;BME280;48237;50.140;8.486;2023-01-29T19:21:51;100444.60;;;0.11;68.02
62248;BME280;48237;50.140;8.486;2023-01-29T19:24:18;100443.92;;;-0.04;69.76
62248;BME280;48237;50.140;8.486;2023-01-29T19:26:45;100437.48;;;-0.00;67.68
62248;BME280;48237;50.140;8.486;2023-01-29T19:29:12;100437.18;;;0.58;66.61
62248;BME280;48237;50.140;8.486;2023-01-29T19:31:39;100434.30;;;0.30;66.14
62248;BME280;48237;50.140;8.486;2023-01-29T19:34:07;100430.72;;;0.18;67.62
62248;BME280;48237;50.140;8.486;2023-01-29T19:36:35;100428.94;;;0.17;67.10
62248;BME280;48237;50.140;8.486;2023-01-29T19:39:02;100432.61;;;0.24;66.89
62248;BME280;48237;50.140;8.486;2023-01-29T19:41:29;100433.05;;;0.08;69.05
62248;BME280;48237;50.140;8.486;2023-01-29T19:43:56;100432.27;;;-0.07;69.65
62248;BME280;48237;50.140;8.486;2023-01-29T19:46:22;100435.20;;;-0.22;69.72
62248;BME280;48237;50.140;8.486;2023-01-29T19:48:50;100431.79;;;-0.11;68.62
62248;BME280;48237;50.140;8.486;2023-01-29T19:51:17;100434.72;;;0.08;69.62
62248;BME280;48237;50.140;8.486;2023-01-29T19:53:44;100432.73;;;-0.34;70.98
62248;BME280;48237;50.140;8.486;2023-01-29T19:56:13;100435.52;;;-0.23;69.96
62248;BME280;48237;50.140;8.486;2023-01-29T19:58:40;100437.48;;;-0.08;70.38
62248;BME280;48237;50.140;8.486;2023-01-29T20:01:13;100433.47;;;0.13;69.55
62248;BME280;48237;50.140;8.486;2023-01-29T20:03:42;100432.04;;;0.17;68.60
62248;BME280;48237;50.140;8.486;2023-01-29T20:06:09;100433.52;;;0.28;67.76
62248;BME280;48237;50.140;8.486;2023-01-29T20:08:36;100435.44;;;0.27;68.33
62248;BME280;48237;50.140;8.486;2023-01-29T20:11:04;100434.83;;;0.11;69.53
62248;BME280;48237;50.140;8.486;2023-01-29T20:13:32;100425.02;;;0.06;70.18
62248;BME280;48237;50.140;8.486;2023-01-29T20:16:00;100428.80;;;0.08;69.96
62248;BME280;48237;50.140;8.486;2023-01-29T20:18:27;100427.50;;;0.19;70.20
62248;BME280;48237;50.140;8.486;2023-01-29T20:20:54;100432.89;;;-0.22;71.35
62248;BME280;48237;50.140;8.486;2023-01-29T20:23:22;100424.99;;;-0.16;71.10
62248;BME280;48237;50.140;8.486;2023-01-29T20:25:50;100411.80;;;0.14;71.11
62248;BME280;48237;50.140;8.486;2023-01-29T20:28:17;100409.91;;;0.25;70.86
62248;BME280;48237;50.140;8.486;2023-01-29T20:30:44;100414.24;;;0.46;69.02
62248;BME280;48237;50.140;8.486;2023-01-29T20:33:12;100409.93;;;-0.07;71.04
62248;BME280;48237;50.140;8.486;2023-01-29T20:35:39;100411.55;;;0.89;67.00
62248;BME280;48237;50.140;8.486;2023-01-29T20:38:07;100405.49;;;-0.47;73.25
62248;BME280;48237;50.140;8.486;2023-01-29T20:40:34;100399.27;;;-0.18;70.14
62248;BME280;48237;50.140;8.486;2023-01-29T20:43:02;100399.46;;;0.21;69.24
62248;BME280;48237;50.140;8.486;2023-01-29T20:45:29;100398.92;;;1.07;66.55
62248;BME280;48237;50.140;8.486;2023-01-29T20:47:56;100394.22;;;0.33;68.92
62248;BME280;48237;50.140;8.486;2023-01-29T20:50:23;100391.21;;;0.58;67.29
62248;BME280;48237;50.140;8.486;2023-01-29T20:52:50;100387.63;;;1.90;62.62
62248;BME280;48237;50.140;8.486;2023-01-29T20:55:17;100393.80;;;0.91;64.44
62248;BME280;48237;50.140;8.486;2023-01-29T20:57:44;100382.06;;;1.45;63.54
62248;BME280;48237;50.140;8.486;2023-01-29T21:00:13;100375.99;;;1.80;64.49
62248;BME280;48237;50.140;8.486;2023-01-29T21:02:40;100369.14;;;1.06;65.69
62248;BME280;48237;50.140;8.486;2023-01-29T21:05:08;100365.75;;;1.81;64.67
62248;BME280;48237;50.140;8.486;2023-01-29T21:07:35;100364.68;;;2.09;64.78
62248;BME280;48237;50.140;8.486;2023-01-29T21:10:03;100367.65;;;1.19;67.21
62248;BME280;48237;50.140;8.486;2023-01-29T21:12:30;100365.07;;;1.67;67.13
62248;BME280;48237;50.140;8.486;2023-01-29T21:14:57;100359.97;;;2.24;63.96
62248;BME280;48237;50.140;8.486;2023-01-29T21:17:24;100354.81;;;1.73;66.43
62248;BME280;48237;50.140;8.486;2023-01-29T21:19:51;100348.76;;;1.73;64.37
62248;BME280;48237;50.140;8.486;2023-01-29T21:22:19;100343.35;;;2.08;63.56
62248;BME280;48237;50.140;8.486;2023-01-29T21:24:45;100341.95;;;1.67;63.88
62248;BME280;48237;50.140;8.486;2023-01-29T21:27:12;100339.63;;;1.78;64.58
62248;BME280;48237;50.140;8.486;2023-01-29T21:29:39;100334.13;;;1.27;65.85
62248;BME280;48237;50.140;8.486;2023-01-29T21:32:06;100326.37;;;1.09;65.73
62248;BME280;48237;50.140;8.486;2023-01-29T21:34:33;100312.60;;;2.33;64.89
62248;BME280;48237;50.140;8.486;2023-01-29T21:37:00;100305.54;;;2.13;65.12
62248;BME280;48237;50.140;8.486;2023-01-29T21:39:38;100310.52;;;1.01;69.22
62248;BME280;48237;50.140;8.486;2023-01-29T21:42:06;100312.12;;;0.40;72.12
62248;BME280;48237;50.140;8.486;2023-01-29T21:44:33;100303.79;;;1.33;67.66
62248;BME280;48237;50.140;8.486;2023-01-29T21:47:01;100296.05;;;1.30;69.17
62248;BME280;48237;50.140;8.486;2023-01-29T21:49:28;100286.86;;;1.90;67.57
62248;BME280;48237;50.140;8.486;2023-01-29T21:51:54;100276.93;;;0.27;72.58
62248;BME280;48237;50.140;8.486;2023-01-29T21:54:22;100265.52;;;1.44;70.46
62248;BME280;48237;50.140;8.486;2023-01-29T21:56:49;100270.39;;;1.99;67.71
62248;BME280;48237;50.140;8.486;2023-01-29T21:59:16;100269.67;;;2.23;65.84
62248;BME280;48237;50.140;8.486;2023-01-29T22:01:43;100267.84;;;1.11;69.16
62248;BME280;48237;50.140;8.486;2023-01-29T22:04:10;100260.08;;;1.42;68.96
62248;BME280;48237;50.140;8.486;2023-01-29T22:06:37;100263.03;;;1.12;68.56
62248;BME280;48237;50.140;8.486;2023-01-29T22:09:04;100268.94;;;1.79;67.26
62248;BME280;48237;50.140;8.486;2023-01-29T22:11:31;100278.40;;;1.62;66.27
62248;BME280;48237;50.140;8.486;2023-01-29T22:13:59;100273.03;;;1.30;70.23
62248;BME280;48237;50.140;8.486;2023-01-29T22:16:26;100275.31;;;-0.17;74.56
62248;BME280;48237;50.140;8.486;2023-01-29T22:18:53;100264.82;;;0.96;70.32
62248;BME280;48237;50.140;8.486;2023-01-29T22:21:21;100264.38;;;1.84;68.74
62248;BME280;48237;50.140;8.486;2023-01-29T22:23:48;100261.34;;;1.80;67.62
62248;BME280;48237;50.140;8.486;2023-01-29T22:26:15;100252.59;;;1.16;69.85
62248;BME280;48237;50.140;8.486;2023-01-29T22:28:43;100254.90;;;1.36;68.25
62248;BME280;48237;50.140;8.486;2023-01-29T22:31:10;100250.30;;;0.93;70.09
62248;BME280;48237;50.140;8.486;2023-01-29T22:33:38;100244.64;;;0.84;70.87
62248;BME280;48237;50.140;8.486;2023-01-29T22:36:06;100244.83;;;1.65;68.15
62248;BME280;48237;50.140;8.486;2023-01-29T22:38:33;100247.36;;;1.43;68.16
62248;BME280;48237;50.140;8.486;2023-01-29T22:41:00;100236.29;;;0.89;71.07
62248;BME280;48237;50.140;8.486;2023-01-29T22:43:27;100234.45;;;1.12;70.53
62248;BME280;48237;50.140;8.486;2023-01-29T22:45:54;100232.19;;;1.24;70.41
62248;BME280;48237;50.140;8.486;2023-01-29T22:48:22;100229.89;;;0.93;72.55
62248;BME280;48237;50.140;8.486;2023-01-29T22:50:55;100221.23;;;0.64;70.85
62248;BME280;48237;50.140;8.486;2023-01-29T22:53:22;100213.87;;;1.89;67.71
62248;BME280;48237;50.140;8.486;2023-01-29T22:55:52;100212.03;;;1.50;69.00
62248;BME280;48237;50.140;8.486;2023-01-29T22:58:19;100210.44;;;1.71;68.39
62248;BME280;48237;50.140;8.486;2023-01-29T23:00:48;100212.32;;;1.81;68.56
62248;BME280;48237;50.140;8.486;2023-01-29T23:03:16;100202.61;;;1.23;69.60
62248;BME280;48237;50.140;8.486;2023-01-29T23:05:43;100193.48;;;1.12;71.17
62248;BME280;48237;50.140;8.486;2023-01-29T23:08:10;100192.02;;;1.81;67.27
62248;BME280;48237;50.140;8.486;2023-01-29T23:10:37;100190.61;;;1.64;68.99
62248;BME280;48237;50.140;8.486;2023-01-29T23:13:04;100200.83;;;2.22;66.75
62248;BME280;48237;50.140;8.486;2023-01-29T23:15:31;100208.44;;;2.03;68.77
62248;BME280;48237;50.140;8.486;2023-01-29T23:17:58;100207.09;;;2.09;68.86
62248;BME280;48237;50.140;8.486;2023-01-29T23:20:26;100205.32;;;2.14;67.09
62248;BME280;48237;50.140;8.486;2023-01-29T23:22:53;100204.33;;;2.18;68.24
62248;BME280;48237;50.140;8.486;2023-01-29T23:25:20;100203.40;;;1.91;67.09
62248;BME280;48237;50.140;8.486;2023-01-29T23:27:47;100202.85;;;1.50;70.43
62248;BME280;48237;50.140;8.486;2023-01-29T23:30:14;100202.39;;;1.66;69.47
62248;BME280;48237;50.140;8.486;2023-01-29T23:32:41;100202.49;;;2.13;67.64
62248;BME280;48237;50.140;8.486;2023-01-29T23:35:09;100196.39;;;2.52;65.48
62248;BME280;48237;50.140;8.486;2023-01-29T23:37:36;100208.52;;;2.02;66.40
62248;BME280;48237;50.140;8.486;2023-01-29T23:40:04;100204.54;;;1.81;67.69
62248;BME280;48237;50.140;8.486;2023-01-29T23:42:31;100191.53;;;2.27;66.17
62248;BME280;48237;50.140;8.486;2023-01-29T23:44:58;100192.39;;;2.63;64.84
62248;BME280;48237;50.140;8.486;2023-01-29T23:47:25;100197.29;;;2.11;67.74
62248;BME280;48237;50.140;8.486;2023-01-29T23:49:52;100187.18;;;2.43;65.56
62248;BME280;48237;50.140;8.486;2023-01-29T23:52:19;100182.03;;;0.46;71.79
62248;BME280;48237;50.140;8.486;2023-01-29T23:54:46;100174.05;;;1.44;70.36
62248;BME280;48237;50.140;8.486;2023-01-29T23:57:13;100167.55;;;1.70;70.28
62248;BME280;48237;50.140;8.486;2023-01-29T23:59:41;100162.65;;;1.86;68.16
